Time;durP1;ratioP1;P1;durP2;ratioP2;P2;SDS_P1;SDS_P2;PMS_P1;PMS_P2;Temp;Humidity;BMP_temperature;BMP_pressure;BME280_temperature;BME280_humidity;BME280_pressure;Samples;Min_cycle;Max_cycle;Signal;HPM_P1;HPM_P2
2023/06/13 00:01:35;;;;;;;;;24.50;23.25;;;;;;;;5087561;27;45698;-74
2023/06/13 00:04:02;;;;;;;;;24.75;22.25;;;;;;;;5092533;27;45684;-74
2023/06/13 00:06:29;;;;;;;;;24.25;21.75;;;;;;;;5095116;27;45226;-73
2023/06/13 00:08:54;;;;;;;;;24.50;24.25;;;;;;;;5090801;27;45217;-73
2023/06/13 00:11:19;;;;;;;;;29.25;25.75;;;;;;;;5087196;27;46203;-73
2023/06/13 00:13:45;;;;;;;;;24.33;23.00;;;;;;;;5092357;27;45208;-73
2023/06/13 00:16:12;;;;;;;;;28.25;25.25;;;;;;;;5094609;27;45471;-73
2023/06/13 00:18:37;;;;;;;;;30.75;26.75;;;;;;;;5090510;27;45414;-73
2023/06/13 00:21:03;;;;;;;;;26.50;24.00;;;;;;;;5087370;27;46091;-73
2023/06/13 00:23:28;;;;;;;;;27.75;26.00;;;;;;;;5091920;27;45279;-73
2023/06/13 00:25:54;;;;;;;;;25.25;24.50;;;;;;;;5094239;27;45571;-74
2023/06/13 00:28:19;;;;;;;;;27.25;26.50;;;;;;;;5094078;27;45310;-73
2023/06/13 00:30:45;;;;;;;;;25.25;23.50;;;;;;;;5087186;27;45459;-73
2023/06/13 00:33:17;;;;;;;;;33.00;30.00;;;;;;;;5089057;27;45255;-73
2023/06/13 00:35:42;;;;;;;;;25.75;24.75;;;;;;;;5093645;27;45384;-73
2023/06/13 00:38:08;;;;;;;;;25.50;23.75;;;;;;;;5096369;27;45359;-73
2023/06/13 00:40:33;;;;;;;;;25.75;25.00;;;;;;;;5091848;27;45420;-74
2023/06/13 00:42:58;;;;;;;;;30.33;29.00;;;;;;;;5095189;27;45304;-74
2023/06/13 00:45:24;;;;;;;;;27.67;26.67;;;;;;;;5091926;27;45460;-74
2023/06/13 00:48:02;;;;;;;;;30.25;27.25;;;;;;;;5086871;27;45516;-74
2023/06/13 00:50:30;;;;;;;;;26.25;22.25;;;;;;;;5087885;27;46197;-74
2023/06/13 00:52:57;;;;;;;;;29.50;26.75;;;;;;;;5093908;27;45164;-74
2023/06/13 00:55:24;;;;;;;;;27.25;24.25;;;;;;;;5092879;27;45370;-74
2023/06/13 00:57:53;;;;;;;;;29.25;28.50;;;;;;;;5087442;27;45487;-74
2023/06/13 01:00:19;;;;;;;;;27.50;26.50;;;;;;;;5086923;27;45475;-74
2023/06/13 01:02:44;;;;;;;;;33.75;27.25;;;;;;;;5085935;27;45431;-74
2023/06/13 01:05:11;;;;;;;;;27.25;22.75;;;;;;;;5092429;27;45354;-74
2023/06/13 01:07:39;;;;;;;;;25.75;25.00;;;;;;;;5088026;27;45357;-74
2023/06/13 01:10:04;;;;;;;;;31.00;26.00;;;;;;;;5086660;27;46281;-74
2023/06/13 01:12:33;;;;;;;;;28.00;26.75;;;;;;;;5092217;27;45476;-74
2023/06/13 01:15:25;;;;;;;;;24.50;22.25;;;;;;;;5093911;27;45157;-74
2023/06/13 01:17:57;;;;;;;;;26.50;25.75;;;;;;;;5091452;27;45340;-74
2023/06/13 01:20:22;;;;;;;;;30.25;26.00;;;;;;;;5086644;27;45440;-74
2023/06/13 01:23:08;;;;;;;;;29.25;26.25;;;;;;;;5086742;27;45348;-74
2023/06/13 01:25:57;;;;;;;;;26.50;24.00;;;;;;;;5100116;27;45453;-74
2023/06/13 01:28:22;;;;;;;;;24.75;22.75;;;;;;;;5092154;27;45543;-74
2023/06/13 01:30:48;;;;;;;;;26.25;26.00;;;;;;;;5097945;27;46314;-74
2023/06/13 01:33:14;;;;;;;;;27.75;24.75;;;;;;;;5086485;27;45213;-74
2023/06/13 01:35:40;;;;;;;;;31.00;28.25;;;;;;;;5092054;27;45468;-74
2023/06/13 01:38:05;;;;;;;;;26.75;25.50;;;;;;;;5093224;27;45277;-74
2023/06/13 01:40:30;;;;;;;;;27.25;25.00;;;;;;;;5087916;27;45229;-74
2023/06/13 01:42:55;;;;;;;;;29.33;25.33;;;;;;;;5086543;27;45189;-74
2023/06/13 01:45:21;;;;;;;;;28.67;26.33;;;;;;;;5091897;27;45350;-74
2023/06/13 01:48:02;;;;;;;;;29.25;25.25;;;;;;;;5092985;27;45314;-74
2023/06/13 01:50:30;;;;;;;;;28.00;25.75;;;;;;;;5090297;27;45511;-74
2023/06/13 01:53:07;;;;;;;;;30.25;27.75;;;;;;;;5086311;27;45472;-74
2023/06/13 01:55:38;;;;;;;;;26.00;24.25;;;;;;;;5095792;27;45360;-74
2023/06/13 01:58:07;;;;;;;;;29.75;26.75;;;;;;;;5093364;27;45272;-74
2023/06/13 02:00:33;;;;;;;;;28.00;24.00;;;;;;;;5092940;27;46523;-74
2023/06/13 02:02:59;;;;;;;;;25.75;24.75;;;;;;;;5096120;27;45412;-74
2023/06/13 02:05:27;;;;;;;;;29.00;27.50;;;;;;;;5088586;27;45447;-74
2023/06/13 02:07:53;;;;;;;;;23.50;22.25;;;;;;;;5096279;27;45291;-74
2023/06/13 02:10:18;;;;;;;;;28.75;27.50;;;;;;;;5093428;27;45321;-74
2023/06/13 02:12:44;;;;;;;;;26.25;25.25;;;;;;;;5089579;27;45458;-74
2023/06/13 02:15:09;;;;;;;;;30.67;28.67;;;;;;;;5103768;27;45211;-74
2023/06/13 02:17:35;;;;;;;;;32.00;29.25;;;;;;;;5089288;27;45473;-74
2023/06/13 02:20:00;;;;;;;;;24.75;24.00;;;;;;;;5092489;27;45530;-74
2023/06/13 02:22:26;;;;;;;;;21.00;21.00;;;;;;;;5096146;27;45557;-74
2023/06/13 02:24:51;;;;;;;;;27.67;24.00;;;;;;;;5083316;27;45415;-74
2023/06/13 02:27:17;;;;;;;;;30.50;27.50;;;;;;;;5098411;27;45547;-74
2023/06/13 02:29:44;;;;;;;;;30.67;28.67;;;;;;;;5103233;27;45432;-74
2023/06/13 02:32:09;;;;;;;;;28.25;26.50;;;;;;;;5102500;27;45374;-74
2023/06/13 02:34:34;;;;;;;;;27.33;27.00;;;;;;;;5092489;27;45442;-74
2023/06/13 02:36:59;;;;;;;;;28.00;25.00;;;;;;;;5095788;27;45392;-74
2023/06/13 02:39:24;;;;;;;;;35.00;31.00;;;;;;;;5093382;27;45472;-74
2023/06/13 02:41:49;;;;;;;;;27.00;25.67;;;;;;;;5088985;27;45337;-74
2023/06/13 02:44:15;;;;;;;;;31.00;28.00;;;;;;;;5092140;27;45310;-74
2023/06/13 02:46:40;;;;;;;;;30.00;28.00;;;;;;;;5095918;27;45464;-74
2023/06/13 02:49:05;;;;;;;;;29.75;26.25;;;;;;;;5092792;27;45342;-73
2023/06/13 02:51:30;;;;;;;;;31.00;29.25;;;;;;;;5088943;27;45258;-74
2023/06/13 02:53:56;;;;;;;;;35.00;31.00;;;;;;;;5092564;27;45668;-74
2023/06/13 02:56:21;;;;;;;;;32.67;29.00;;;;;;;;5086006;27;45512;-74
2023/06/13 02:58:46;;;;;;;;;32.00;30.00;;;;;;;;5081957;27;46192;-74
2023/06/13 03:01:12;;;;;;;;;29.00;27.33;;;;;;;;5083434;27;45358;-74
2023/06/13 03:03:37;;;;;;;;;31.75;29.00;;;;;;;;5100811;27;45239;-74
2023/06/13 03:06:04;;;;;;;;;33.50;29.00;;;;;;;;5100912;27;46297;-74
2023/06/13 03:08:30;;;;;;;;;32.75;29.75;;;;;;;;5102399;27;46472;-74
2023/06/13 03:10:56;;;;;;;;;27.00;26.00;;;;;;;;5102248;27;45415;-74
2023/06/13 03:13:22;;;;;;;;;31.75;29.25;;;;;;;;5102392;27;45383;-74
2023/06/13 03:15:47;;;;;;;;;32.50;29.75;;;;;;;;5102179;27;45394;-74
2023/06/13 03:18:17;;;;;;;;;32.75;30.25;;;;;;;;5101454;27;46253;-74
2023/06/13 03:20:46;;;;;;;;;32.75;29.50;;;;;;;;5101933;27;45540;-74
2023/06/13 03:23:15;;;;;;;;;28.75;26.25;;;;;;;;5102458;27;45282;-74
2023/06/13 03:25:41;;;;;;;;;26.00;24.50;;;;;;;;5082297;27;45483;-73
2023/06/13 03:28:06;;;;;;;;;32.75;29.75;;;;;;;;5082426;27;45438;-74
2023/06/13 03:30:32;;;;;;;;;33.25;29.75;;;;;;;;5083830;27;45432;-73
2023/06/13 03:32:57;;;;;;;;;32.00;30.00;;;;;;;;5080546;27;45389;-74
2023/06/13 03:35:22;;;;;;;;;29.33;28.00;;;;;;;;5081350;27;45216;-74
2023/06/13 03:37:47;;;;;;;;;32.75;31.00;;;;;;;;5081439;27;46197;-74
2023/06/13 03:40:13;;;;;;;;;35.33;30.00;;;;;;;;5081175;27;45328;-74
2023/06/13 03:42:38;;;;;;;;;30.33;29.67;;;;;;;;5081660;27;45596;-74
2023/06/13 03:45:03;;;;;;;;;33.00;30.00;;;;;;;;5081153;27;45465;-74
2023/06/13 03:47:28;;;;;;;;;34.25;32.00;;;;;;;;5092353;27;45358;-74
2023/06/13 03:49:54;;;;;;;;;32.50;31.25;;;;;;;;5101534;27;45255;-74
2023/06/13 03:52:19;;;;;;;;;32.00;30.00;;;;;;;;5102110;27;45416;-74
2023/06/13 03:54:45;;;;;;;;;33.50;28.50;;;;;;;;5101164;27;45214;-74
2023/06/13 03:57:11;;;;;;;;;30.50;28.50;;;;;;;;5088879;27;45321;-74
2023/06/13 03:59:36;;;;;;;;;30.00;28.00;;;;;;;;5081042;27;45340;-74
2023/06/13 04:02:01;;;;;;;;;30.67;29.33;;;;;;;;5080033;28;45284;-74
2023/06/13 04:04:27;;;;;;;;;28.50;27.50;;;;;;;;5100254;27;45518;-74
2023/06/13 04:06:52;;;;;;;;;27.75;24.75;;;;;;;;5101584;27;45329;-74
2023/06/13 04:09:17;;;;;;;;;31.00;27.50;;;;;;;;5101282;27;45415;-74
2023/06/13 04:11:43;;;;;;;;;32.33;28.67;;;;;;;;5101478;27;45543;-74
2023/06/13 04:14:08;;;;;;;;;25.00;24.50;;;;;;;;5101128;27;46725;-74
2023/06/13 04:16:33;;;;;;;;;29.00;28.00;;;;;;;;5101416;27;45501;-74
2023/06/13 04:19:01;;;;;;;;;30.33;28.00;;;;;;;;5101023;27;45442;-74
2023/06/13 04:21:26;;;;;;;;;32.00;29.25;;;;;;;;5086528;27;46341;-74
2023/06/13 04:23:52;;;;;;;;;27.00;25.00;;;;;;;;5080365;27;45978;-74
2023/06/13 04:26:17;;;;;;;;;31.00;27.75;;;;;;;;5080539;27;45714;-74
2023/06/13 04:28:42;;;;;;;;;32.50;28.75;;;;;;;;5080600;27;45211;-74
2023/06/13 04:31:08;;;;;;;;;32.50;27.25;;;;;;;;5088326;27;45489;-74
2023/06/13 04:33:33;;;;;;;;;29.00;24.25;;;;;;;;5081085;27;45164;-74
2023/06/13 04:36:03;;;;;;;;;24.50;24.00;;;;;;;;5080338;27;46582;-74
2023/06/13 04:38:29;;;;;;;;;25.50;24.00;;;;;;;;5080590;27;45638;-74
2023/06/13 04:40:54;;;;;;;;;29.75;28.75;;;;;;;;5089850;27;45317;-74
2023/06/13 04:43:21;;;;;;;;;30.00;26.50;;;;;;;;5100798;27;45432;-74
2023/06/13 04:45:48;;;;;;;;;28.75;27.25;;;;;;;;5100942;27;45431;-74
2023/06/13 04:48:14;;;;;;;;;25.50;24.00;;;;;;;;5100832;27;45578;-74
2023/06/13 04:50:40;;;;;;;;;26.25;24.50;;;;;;;;5100907;27;45560;-74
2023/06/13 04:53:07;;;;;;;;;24.00;23.75;;;;;;;;5100630;27;45246;-74
2023/06/13 04:55:35;;;;;;;;;29.50;27.25;;;;;;;;5097914;27;45441;-74
2023/06/13 04:58:00;;;;;;;;;20.50;19.75;;;;;;;;5098222;27;45979;-75
2023/06/13 05:00:25;;;;;;;;;29.25;28.00;;;;;;;;5097676;27;45590;-74
2023/06/13 05:02:51;;;;;;;;;26.33;25.67;;;;;;;;5085832;27;45443;-74
2023/06/13 05:05:18;;;;;;;;;23.75;23.50;;;;;;;;5088660;27;46377;-74
2023/06/13 05:07:43;;;;;;;;;28.75;24.25;;;;;;;;5082915;27;45494;-74
2023/06/13 05:10:09;;;;;;;;;27.50;24.50;;;;;;;;5093541;27;45353;-75
2023/06/13 05:12:34;;;;;;;;;24.75;20.25;;;;;;;;5098828;27;45452;-75
2023/06/13 05:14:59;;;;;;;;;28.25;23.50;;;;;;;;5081501;27;46377;-75
2023/06/13 05:17:27;;;;;;;;;29.50;26.00;;;;;;;;5096042;27;45274;-75
2023/06/13 05:19:53;;;;;;;;;23.75;23.00;;;;;;;;5097929;27;45431;-74
2023/06/13 05:22:18;;;;;;;;;26.00;25.75;;;;;;;;5099399;27;45692;-75
2023/06/13 05:24:44;;;;;;;;;23.50;23.50;;;;;;;;5088054;27;45302;-73
2023/06/13 05:27:09;;;;;;;;;25.33;22.33;;;;;;;;5091786;27;45494;-72
2023/06/13 05:29:34;;;;;;;;;29.00;24.33;;;;;;;;5086462;27;45336;-72
2023/06/13 05:31:59;;;;;;;;;22.00;19.33;;;;;;;;5089698;27;45283;-68
2023/06/13 05:34:26;;;;;;;;;27.00;25.33;;;;;;;;5094087;27;45506;-68
2023/06/13 05:36:52;;;;;;;;;17.00;16.00;;;;;;;;5082664;27;45469;-68
2023/06/13 05:39:18;;;;;;;;;21.33;21.00;;;;;;;;5098618;27;45906;-68
2023/06/13 05:41:43;;;;;;;;;28.50;27.50;;;;;;;;5098184;27;45493;-67
2023/06/13 05:44:08;;;;;;;;;23.67;22.67;;;;;;;;5091202;27;45492;-67
2023/06/13 05:46:33;;;;;;;;;26.50;23.75;;;;;;;;5095716;27;46998;-67
2023/06/13 05:48:59;;;;;;;;;24.25;22.00;;;;;;;;5084659;27;45295;-67
2023/06/13 05:51:24;;;;;;;;;25.25;23.50;;;;;;;;5078994;27;45260;-67
2023/06/13 05:53:50;;;;;;;;;24.00;23.00;;;;;;;;5090224;27;46200;-67
2023/06/13 05:56:15;;;;;;;;;26.50;24.00;;;;;;;;5080980;27;45632;-67
2023/06/13 05:58:41;;;;;;;;;24.33;23.33;;;;;;;;5090584;27;45293;-68
2023/06/13 06:01:06;;;;;;;;;27.00;25.75;;;;;;;;5081656;27;45429;-66
2023/06/13 06:03:33;;;;;;;;;29.50;24.75;;;;;;;;5091724;27;46319;-67
2023/06/13 06:05:58;;;;;;;;;29.00;26.75;;;;;;;;5082790;27;45557;-67
2023/06/13 06:08:24;;;;;;;;;27.33;26.33;;;;;;;;5079986;27;45426;-67
2023/06/13 06:10:49;;;;;;;;;30.33;25.33;;;;;;;;5085406;27;46260;-67
2023/06/13 06:13:14;;;;;;;;;27.67;23.00;;;;;;;;5078940;27;45683;-67
2023/06/13 06:15:40;;;;;;;;;26.75;24.25;;;;;;;;5092843;27;45369;-68
2023/06/13 06:18:05;;;;;;;;;26.50;25.50;;;;;;;;5086077;27;45472;-67
2023/06/13 06:20:31;;;;;;;;;26.75;25.25;;;;;;;;5091700;27;45287;-68
2023/06/13 06:22:56;;;;;;;;;27.33;26.33;;;;;;;;5088141;27;46287;-68
2023/06/13 06:25:21;;;;;;;;;23.67;22.33;;;;;;;;5093788;27;45353;-67
2023/06/13 06:27:47;;;;;;;;;30.00;28.25;;;;;;;;5093021;27;46028;-67
2023/06/13 06:30:12;;;;;;;;;24.25;23.25;;;;;;;;5092258;27;45242;-66
2023/06/13 06:32:37;;;;;;;;;25.00;23.25;;;;;;;;5097104;27;45341;-66
2023/06/13 06:35:06;;;;;;;;;28.67;26.33;;;;;;;;5091085;27;45345;-67
2023/06/13 06:37:32;;;;;;;;;29.75;29.00;;;;;;;;5088441;27;45318;-66
2023/06/13 06:39:57;;;;;;;;;27.75;26.00;;;;;;;;5085553;27;45655;-68
2023/06/13 06:42:22;;;;;;;;;23.75;22.00;;;;;;;;5087188;27;45451;-68
2023/06/13 06:44:48;;;;;;;;;24.50;22.75;;;;;;;;5091461;27;45471;-75
2023/06/13 06:47:14;;;;;;;;;23.75;21.75;;;;;;;;5087125;27;45345;-69
2023/06/13 06:49:40;;;;;;;;;26.00;24.33;;;;;;;;5094798;27;45296;-69
2023/06/13 06:52:06;;;;;;;;;26.75;22.00;;;;;;;;5090916;27;46588;-69
2023/06/13 06:54:31;;;;;;;;;23.00;21.50;;;;;;;;5085507;27;46728;-69
2023/06/13 06:56:56;;;;;;;;;26.33;23.67;;;;;;;;5090451;27;45504;-69
2023/06/13 06:59:21;;;;;;;;;24.67;23.33;;;;;;;;5088611;27;45598;-69
2023/06/13 07:01:48;;;;;;;;;22.33;19.00;;;;;;;;5092153;27;45578;-69
2023/06/13 07:04:13;;;;;;;;;18.25;17.50;;;;;;;;5085657;27;45452;-69
2023/06/13 07:06:38;;;;;;;;;27.67;25.67;;;;;;;;5088172;27;45337;-68
2023/06/13 07:09:03;;;;;;;;;24.50;21.00;;;;;;;;5092145;27;45294;-69
2023/06/13 07:11:28;;;;;;;;;20.67;19.67;;;;;;;;5096374;27;45501;-69
2023/06/13 07:13:54;;;;;;;;;17.67;16.00;;;;;;;;5098830;27;45296;-67
2023/06/13 07:16:19;;;;;;;;;21.50;18.50;;;;;;;;5085516;27;45471;-70
2023/06/13 07:18:45;;;;;;;;;24.33;19.33;;;;;;;;5086839;27;46045;-70
2023/06/13 07:21:10;;;;;;;;;20.50;19.50;;;;;;;;5091008;27;47411;-69
2023/06/13 07:23:35;;;;;;;;;17.00;16.25;;;;;;;;5083557;27;45576;-68
2023/06/13 07:26:00;;;;;;;;;15.33;14.33;;;;;;;;5083547;27;45656;-71
2023/06/13 07:28:26;;;;;;;;;19.67;17.00;;;;;;;;5091357;27;45496;-71
2023/06/13 07:30:51;;;;;;;;;12.75;12.50;;;;;;;;5093518;27;46015;-71
2023/06/13 07:33:16;;;;;;;;;19.33;18.33;;;;;;;;5090309;27;45326;-71
2023/06/13 07:35:41;;;;;;;;;19.75;18.25;;;;;;;;5091523;27;45455;-71
2023/06/13 07:38:07;;;;;;;;;19.67;19.00;;;;;;;;5093182;27;45704;-71
2023/06/13 07:40:32;;;;;;;;;20.00;16.67;;;;;;;;5086253;27;45804;-71
2023/06/13 07:42:57;;;;;;;;;17.00;14.75;;;;;;;;5081433;27;45422;-71
2023/06/13 07:45:22;;;;;;;;;20.00;17.33;;;;;;;;5091670;27;45390;-71
2023/06/13 07:47:47;;;;;;;;;17.00;16.67;;;;;;;;5091587;27;46640;-72
2023/06/13 07:50:13;;;;;;;;;18.00;18.00;;;;;;;;5090358;27;45488;-72
2023/06/13 07:52:39;;;;;;;;;16.67;15.67;;;;;;;;5086350;27;45528;-71
2023/06/13 07:55:05;;;;;;;;;15.75;15.25;;;;;;;;5088392;27;46675;-72
2023/06/13 07:57:30;;;;;;;;;15.25;13.50;;;;;;;;5095813;27;45561;-71
2023/06/13 07:59:55;;;;;;;;;15.67;15.67;;;;;;;;5085150;27;46516;-72
2023/06/13 08:02:21;;;;;;;;;12.50;12.50;;;;;;;;5083726;27;45501;-71
2023/06/13 08:04:46;;;;;;;;;20.25;17.75;;;;;;;;5081276;27;45500;-72
2023/06/13 08:07:11;;;;;;;;;18.33;16.00;;;;;;;;5088368;27;45816;-71
2023/06/13 08:09:37;;;;;;;;;11.67;11.00;;;;;;;;5082281;27;47082;-71
2023/06/13 08:12:02;;;;;;;;;15.67;15.00;;;;;;;;5090412;27;45672;-72
2023/06/13 08:14:27;;;;;;;;;16.00;15.00;;;;;;;;5087544;27;45598;-72
2023/06/13 08:16:53;;;;;;;;;17.33;17.00;;;;;;;;5091411;27;45457;-72
2023/06/13 08:19:18;;;;;;;;;13.50;13.25;;;;;;;;5099383;27;46537;-71
2023/06/13 08:21:43;;;;;;;;;22.33;20.00;;;;;;;;5088790;27;45808;-72
2023/06/13 08:24:08;;;;;;;;;19.00;18.00;;;;;;;;5086314;27;46362;-72
2023/06/13 08:26:34;;;;;;;;;17.25;16.25;;;;;;;;5082837;27;45656;-76
2023/06/13 08:29:02;;;;;;;;;19.00;17.00;;;;;;;;5085821;27;46300;-71
2023/06/13 08:31:27;;;;;;;;;16.25;15.50;;;;;;;;5089492;27;45728;-70
2023/06/13 08:33:55;;;;;;;;;17.00;14.75;;;;;;;;5089495;27;45534;-71
2023/06/13 08:36:21;;;;;;;;;19.25;17.75;;;;;;;;5085484;27;45919;-72
2023/06/13 08:38:46;;;;;;;;;16.75;15.75;;;;;;;;5090695;27;45705;-74
2023/06/13 08:41:11;;;;;;;;;15.67;14.33;;;;;;;;5076531;27;46859;-75
2023/06/13 08:43:38;;;;;;;;;15.50;14.75;;;;;;;;5088944;27;45469;-79
2023/06/13 08:46:03;;;;;;;;;16.25;15.75;;;;;;;;5090028;27;45466;-79
2023/06/13 08:48:32;;;;;;;;;13.25;13.25;;;;;;;;5093525;27;45399;-77
2023/06/13 08:50:58;;;;;;;;;16.25;13.50;;;;;;;;5092042;27;45678;-76
2023/06/13 08:53:24;;;;;;;;;8.25;6.25;;;;;;;;5088939;27;45484;-76
2023/06/13 08:55:49;;;;;;;;;16.50;16.00;;;;;;;;5085123;27;46864;-76
2023/06/13 08:58:15;;;;;;;;;18.00;15.33;;;;;;;;5078251;27;47190;-78
2023/06/13 09:00:41;;;;;;;;;15.75;15.00;;;;;;;;5096481;27;45368;-77
2023/06/13 09:03:09;;;;;;;;;15.50;14.50;;;;;;;;5093633;27;45471;-76
2023/06/13 09:05:34;;;;;;;;;16.25;15.25;;;;;;;;5091388;27;45583;-80
2023/06/13 09:08:01;;;;;;;;;14.25;14.25;;;;;;;;5097647;27;45324;-77
2023/06/13 09:10:26;;;;;;;;;11.50;11.00;;;;;;;;5087130;27;45283;-75
2023/06/13 09:12:52;;;;;;;;;14.25;13.25;;;;;;;;5087654;27;45689;-75
2023/06/13 09:15:17;;;;;;;;;13.00;13.00;;;;;;;;5092442;27;45407;-77
2023/06/13 09:17:42;;;;;;;;;12.33;11.33;;;;;;;;5085504;27;46980;-73
2023/06/13 09:20:08;;;;;;;;;17.00;16.75;;;;;;;;5090007;27;47028;-69
2023/06/13 09:22:34;;;;;;;;;18.50;15.75;;;;;;;;5087668;27;45528;-74
2023/06/13 09:25:00;;;;;;;;;15.00;15.00;;;;;;;;5086965;27;45338;-72
2023/06/13 09:27:26;;;;;;;;;12.25;10.75;;;;;;;;5093890;27;47566;-73
2023/06/13 09:29:51;;;;;;;;;13.50;12.25;;;;;;;;5087642;27;45380;-75
2023/06/13 09:32:18;;;;;;;;;19.00;17.50;;;;;;;;5097896;27;45393;-74
2023/06/13 09:34:45;;;;;;;;;15.25;15.25;;;;;;;;5086208;27;45506;-74
2023/06/13 09:37:11;;;;;;;;;18.00;17.25;;;;;;;;5085844;27;47952;-74
2023/06/13 09:39:45;;;;;;;;;16.25;16.25;;;;;;;;5090081;27;45244;-74
2023/06/13 09:42:10;;;;;;;;;16.25;16.25;;;;;;;;5091711;27;45585;-74
2023/06/13 09:44:36;;;;;;;;;17.25;16.00;;;;;;;;5088902;27;45859;-73
2023/06/13 09:47:01;;;;;;;;;17.00;16.50;;;;;;;;5096577;27;45739;-74
2023/06/13 09:49:32;;;;;;;;;14.75;14.75;;;;;;;;5086917;27;45370;-76
2023/06/13 09:52:01;;;;;;;;;15.25;15.00;;;;;;;;5078173;28;45366;-75
2023/06/13 09:54:29;;;;;;;;;13.25;10.75;;;;;;;;5080804;27;45369;-75
2023/06/13 09:56:55;;;;;;;;;18.00;16.50;;;;;;;;5079607;27;46924;-75
2023/06/13 09:59:20;;;;;;;;;17.75;15.50;;;;;;;;5089538;27;45354;-75
2023/06/13 10:01:48;;;;;;;;;15.25;15.25;;;;;;;;5082146;27;45531;-75
2023/06/13 10:04:14;;;;;;;;;17.50;16.00;;;;;;;;5094188;27;45274;-75
2023/06/13 10:06:40;;;;;;;;;17.25;14.50;;;;;;;;5085334;27;45373;-76
2023/06/13 10:09:05;;;;;;;;;12.00;11.25;;;;;;;;5082755;27;45220;-75
2023/06/13 10:11:34;;;;;;;;;17.67;15.67;;;;;;;;5082859;27;45461;-76
2023/06/13 10:13:59;;;;;;;;;15.00;14.25;;;;;;;;5079508;27;47208;-76
2023/06/13 10:16:24;;;;;;;;;18.00;17.33;;;;;;;;5096805;27;46677;-76
2023/06/13 10:18:52;;;;;;;;;13.50;13.50;;;;;;;;5090771;27;45274;-75
2023/06/13 10:21:17;;;;;;;;;14.75;14.25;;;;;;;;5086011;27;45241;-75
2023/06/13 10:23:48;;;;;;;;;15.00;14.25;;;;;;;;5081044;27;45309;-73
2023/06/13 10:26:23;;;;;;;;;11.50;10.75;;;;;;;;5088042;27;46285;-76
2023/06/13 10:28:51;;;;;;;;;16.50;15.75;;;;;;;;5092480;27;46881;-76
2023/06/13 10:31:26;;;;;;;;;14.00;13.75;;;;;;;;5093499;27;45418;-79
2023/06/13 10:33:52;;;;;;;;;15.50;15.00;;;;;;;;5095141;27;45473;-76
2023/06/13 10:36:40;;;;;;;;;19.50;17.00;;;;;;;;5085288;27;47019;-80
2023/06/13 10:39:09;;;;;;;;;16.50;16.25;;;;;;;;5086079;27;45484;-70
2023/06/13 10:41:46;;;;;;;;;15.00;12.25;;;;;;;;5094092;27;45706;-72
2023/06/13 10:44:16;;;;;;;;;35.50;31.75;;;;;;;;5098170;27;45575;-80
2023/06/13 10:46:41;;;;;;;;;32.50;30.25;;;;;;;;5093484;27;45431;-81
2023/06/13 10:49:12;;;;;;;;;18.25;16.75;;;;;;;;5091537;27;45275;-80
2023/06/13 10:51:37;;;;;;;;;17.25;16.50;;;;;;;;5092093;27;45777;-79
2023/06/13 10:54:03;;;;;;;;;15.75;15.75;;;;;;;;5088121;27;46024;-81
2023/06/13 10:56:29;;;;;;;;;13.00;13.00;;;;;;;;5092800;27;46255;-81
2023/06/13 10:59:04;;;;;;;;;17.00;16.50;;;;;;;;5087599;27;45448;-78
2023/06/13 11:01:31;;;;;;;;;15.75;15.25;;;;;;;;5085178;27;45557;-75
2023/06/13 11:04:06;;;;;;;;;15.00;13.25;;;;;;;;5089664;27;47065;-80
2023/06/13 11:06:31;;;;;;;;;18.00;18.00;;;;;;;;5088337;27;45687;-82
2023/06/13 11:09:13;;;;;;;;;15.25;13.25;;;;;;;;5091536;27;45373;-78
2023/06/13 11:12:00;;;;;;;;;15.50;13.25;;;;;;;;5087793;27;46053;-75
2023/06/13 11:14:26;;;;;;;;;15.25;15.25;;;;;;;;5082824;27;46013;-80
2023/06/13 11:16:52;;;;;;;;;15.00;15.00;;;;;;;;5092160;27;45471;-80
2023/06/13 11:19:21;;;;;;;;;14.75;14.25;;;;;;;;5090125;27;46938;-76
2023/06/13 11:22:09;;;;;;;;;11.50;11.50;;;;;;;;5091051;27;45449;-76
2023/06/13 11:24:35;;;;;;;;;14.50;13.00;;;;;;;;5083494;27;45683;-76
2023/06/13 11:27:03;;;;;;;;;15.50;14.50;;;;;;;;5088268;27;47887;-76
2023/06/13 11:29:29;;;;;;;;;17.00;15.50;;;;;;;;5090578;27;45491;-83
2023/06/13 11:31:54;;;;;;;;;16.50;14.50;;;;;;;;5091275;27;45530;-82
2023/06/13 11:34:30;;;;;;;;;14.00;13.25;;;;;;;;5086925;27;45653;-82
2023/06/13 11:37:00;;;;;;;;;11.75;11.50;;;;;;;;5092199;27;45647;-76
2023/06/13 11:39:47;;;;;;;;;13.25;13.00;;;;;;;;5095835;27;45215;-75
2023/06/13 11:42:12;;;;;;;;;13.00;12.25;;;;;;;;5085388;27;45542;-75
2023/06/13 11:44:37;;;;;;;;;15.33;14.67;;;;;;;;5085401;27;45700;-75
2023/06/13 11:47:03;;;;;;;;;14.00;14.00;;;;;;;;5089489;27;46520;-81
2023/06/13 11:49:28;;;;;;;;;13.00;11.00;;;;;;;;5090652;27;46052;-73
2023/06/13 11:51:53;;;;;;;;;13.00;12.00;;;;;;;;5098371;27;45220;-76
2023/06/13 11:54:27;;;;;;;;;15.67;15.00;;;;;;;;5086145;27;46038;-84
2023/06/13 11:56:52;;;;;;;;;15.00;14.75;;;;;;;;5085268;27;45311;-75
2023/06/13 11:59:22;;;;;;;;;13.75;13.25;;;;;;;;5098494;27;45366;-71
2023/06/13 12:01:49;;;;;;;;;15.25;14.50;;;;;;;;5089053;27;45911;-73
2023/06/13 12:04:15;;;;;;;;;14.00;12.25;;;;;;;;5090101;27;45753;-73
2023/06/13 12:06:40;;;;;;;;;14.00;12.50;;;;;;;;5085634;27;47106;-74
2023/06/13 12:09:06;;;;;;;;;12.50;12.50;;;;;;;;5089987;27;45373;-75
2023/06/13 12:11:32;;;;;;;;;14.00;14.00;;;;;;;;5087440;27;45753;-71
2023/06/13 12:13:58;;;;;;;;;9.50;9.50;;;;;;;;5104869;27;46803;-74
2023/06/13 12:16:29;;;;;;;;;16.50;14.25;;;;;;;;5088918;27;46647;-71
2023/06/13 12:18:54;;;;;;;;;15.00;14.00;;;;;;;;5090278;27;45433;-73
2023/06/13 12:21:28;;;;;;;;;12.75;12.75;;;;;;;;5091941;27;46164;-74
2023/06/13 12:23:53;;;;;;;;;13.75;12.75;;;;;;;;5091143;27;45637;-71
2023/06/13 12:26:19;;;;;;;;;14.50;14.25;;;;;;;;5090320;27;45376;-72
2023/06/13 12:28:44;;;;;;;;;8.75;8.75;;;;;;;;5091561;27;46005;-76
2023/06/13 12:31:09;;;;;;;;;10.75;10.00;;;;;;;;5090554;27;45867;-78
2023/06/13 12:33:35;;;;;;;;;15.00;12.25;;;;;;;;5099392;27;46076;-77
2023/06/13 12:36:02;;;;;;;;;16.00;15.00;;;;;;;;5093957;27;47147;-77
2023/06/13 12:38:29;;;;;;;;;9.50;8.50;;;;;;;;5099517;27;45410;-76
2023/06/13 12:40:55;;;;;;;;;13.75;13.50;;;;;;;;5092960;27;45494;-77
2023/06/13 12:43:29;;;;;;;;;13.00;13.00;;;;;;;;5085602;27;47550;-77
2023/06/13 12:45:55;;;;;;;;;13.75;12.75;;;;;;;;5084301;27;45777;-76
2023/06/13 12:48:20;;;;;;;;;15.00;13.75;;;;;;;;5090505;27;45637;-77
2023/06/13 12:50:47;;;;;;;;;14.00;12.50;;;;;;;;5080761;27;45676;-78
2023/06/13 12:53:12;;;;;;;;;11.75;11.75;;;;;;;;5090102;27;45733;-80
2023/06/13 12:55:41;;;;;;;;;16.00;14.00;;;;;;;;5095871;27;45643;-78
2023/06/13 12:58:25;;;;;;;;;15.50;14.25;;;;;;;;5087673;27;45747;-78
2023/06/13 13:00:52;;;;;;;;;15.00;14.50;;;;;;;;5090123;27;45542;-79
2023/06/13 13:03:17;;;;;;;;;13.00;12.50;;;;;;;;5093792;27;45538;-76
2023/06/13 13:05:42;;;;;;;;;13.67;13.67;;;;;;;;5091455;27;45556;-84
2023/06/13 13:08:08;;;;;;;;;15.33;14.67;;;;;;;;5083390;27;45636;-79
2023/06/13 13:10:34;;;;;;;;;18.75;14.50;;;;;;;;5088840;27;45480;-78
2023/06/13 13:12:59;;;;;;;;;13.75;13.25;;;;;;;;5090074;27;45476;-85
2023/06/13 13:15:24;;;;;;;;;13.50;12.75;;;;;;;;5093395;27;45342;-78
2023/06/13 13:17:50;;;;;;;;;13.00;13.00;;;;;;;;5083367;27;45636;-79
2023/06/13 13:20:15;;;;;;;;;11.25;11.00;;;;;;;;5088472;27;45744;-78
2023/06/13 13:22:41;;;;;;;;;13.50;13.00;;;;;;;;5090615;27;47096;-81
2023/06/13 13:25:06;;;;;;;;;12.50;11.25;;;;;;;;5088358;27;45983;-82
2023/06/13 13:27:32;;;;;;;;;15.25;13.25;;;;;;;;5088992;27;45349;-79
2023/06/13 13:29:57;;;;;;;;;13.00;12.50;;;;;;;;5088837;27;45465;-82
2023/06/13 13:32:23;;;;;;;;;13.00;12.00;;;;;;;;5086997;27;46017;-83
2023/06/13 13:34:48;;;;;;;;;12.25;12.25;;;;;;;;5087137;27;47607;-82
2023/06/13 13:37:13;;;;;;;;;14.00;13.33;;;;;;;;5090281;27;45296;-81
2023/06/13 13:39:38;;;;;;;;;9.00;9.00;;;;;;;;5080619;27;46858;-83
2023/06/13 13:42:04;;;;;;;;;13.33;13.33;;;;;;;;5086728;27;46059;-77
2023/06/13 13:44:29;;;;;;;;;10.25;10.25;;;;;;;;5084841;27;45491;-79
2023/06/13 13:46:54;;;;;;;;;13.33;12.67;;;;;;;;5086443;27;46200;-79
2023/06/13 13:49:19;;;;;;;;;15.33;15.00;;;;;;;;5084556;27;45451;-79
2023/06/13 13:51:46;;;;;;;;;14.75;13.75;;;;;;;;5082676;27;46630;-78
2023/06/13 13:54:11;;;;;;;;;16.25;15.50;;;;;;;;5088793;27;45268;-78
2023/06/13 13:56:37;;;;;;;;;17.25;16.25;;;;;;;;5094470;27;45396;-78
2023/06/13 13:59:02;;;;;;;;;16.00;15.00;;;;;;;;5088813;27;45233;-79
2023/06/13 14:01:27;;;;;;;;;15.33;15.33;;;;;;;;5096544;27;46846;-77
2023/06/13 14:03:53;;;;;;;;;15.25;14.25;;;;;;;;5093266;27;46590;-77
2023/06/13 14:06:18;;;;;;;;;13.25;13.25;;;;;;;;5089670;27;45495;-78
2023/06/13 14:08:43;;;;;;;;;17.00;16.00;;;;;;;;5102488;27;45238;-78
2023/06/13 14:11:09;;;;;;;;;14.33;13.33;;;;;;;;5097774;27;45487;-78
2023/06/13 14:13:34;;;;;;;;;13.67;13.67;;;;;;;;5094299;27;46526;-77
2023/06/13 14:15:59;;;;;;;;;11.50;9.25;;;;;;;;5096378;27;45248;-78